Aldan Airport


Codes: UEEA/ADH
Name: Aldan Airport
City: Aldan
Country: Russia
Elevation: 2241 ft.
Wikipedia:

Photos at Aldan Airport


   Photos courtesy of SpottingLog. You can add your own sightings and photos by signing up for a free trial today.



No photos found.

Weather at Aldan Airport


Time (UTC)DescriptionTempratureWindCloud coverageVisibilityPressureHumidity
19-Apr-2024 03:00Light Snow-0°C11 mph, NE100%3264m1020hPa98%
19-Apr-2024 06:00Light Snow0°C11 mph, NE100%6228m1020hPa98%
19-Apr-2024 09:00Overcast Clouds-0°C7 mph, NE100%10000m1019hPa95%
19-Apr-2024 12:00Overcast Clouds-1°C4 mph, NE100%2791m1018hPa98%
19-Apr-2024 15:00Overcast Clouds-1°C2 mph, E100%2991m1017hPa98%
19-Apr-2024 18:00Overcast Clouds-2°C2 mph, E100%1120m1017hPa99%
19-Apr-2024 21:00Overcast Clouds-1°C2 mph, E100%447m1016hPa99%
20-Apr-2024 00:00Overcast Clouds0°C2 mph, NE100%194m1014hPa100%
20-Apr-2024 03:00Overcast Clouds2°C2 mph, NE100%62m1012hPa100%
20-Apr-2024 06:00Overcast Clouds2°C4 mph, NE100%30m1011hPa100%
20-Apr-2024 09:00Overcast Clouds1°C2 mph, NE100%28m1011hPa100%
20-Apr-2024 12:00Light Snow1°C4 mph, S100%39m1012hPa99%
20-Apr-2024 15:00Light Snow-0°C7 mph, S100%10000m1013hPa91%
20-Apr-2024 18:00Overcast Clouds-1°C9 mph, S100%10000m1014hPa81%
20-Apr-2024 21:00Broken Clouds-5°C7 mph, S66%10000m1017hPa87%
21-Apr-2024 00:00Scattered Clouds0°C7 mph, SE35%10000m1016hPa78%
21-Apr-2024 03:00Clear Sky3°C7 mph, SE9%10000m1016hPa79%
21-Apr-2024 06:00Scattered Clouds4°C4 mph, E32%10000m1015hPa76%
21-Apr-2024 09:00Overcast Clouds2°C4 mph, E96%10000m1015hPa87%
21-Apr-2024 12:00Overcast Clouds-2°C4 mph, SE96%10000m1016hPa91%
21-Apr-2024 15:00Overcast Clouds-2°C4 mph, SE96%10000m1016hPa89%
21-Apr-2024 18:00Broken Clouds-4°C4 mph, S84%10000m1016hPa85%
21-Apr-2024 21:00Broken Clouds-3°C4 mph, S51%10000m1016hPa84%
22-Apr-2024 00:00Broken Clouds2°C4 mph, S54%10000m1015hPa79%
22-Apr-2024 03:00Scattered Clouds4°C9 mph, SW37%10000m1015hPa73%
22-Apr-2024 06:00Scattered Clouds4°C7 mph, S47%10000m1014hPa68%
22-Apr-2024 09:00Broken Clouds3°C4 mph, S78%10000m1014hPa79%
22-Apr-2024 12:00Broken Clouds-2°C4 mph, S69%10000m1016hPa88%
22-Apr-2024 15:00Overcast Clouds-3°C2 mph, SE90%10000m1014hPa89%
22-Apr-2024 18:00Overcast Clouds-2°C2 mph, E94%10000m1012hPa91%
22-Apr-2024 21:00Overcast Clouds-1°C4 mph, NE100%10000m1008hPa91%
23-Apr-2024 00:00Light Snow1°C2 mph, E99%9167m1007hPa93%
23-Apr-2024 03:00Overcast Clouds4°C4 mph, SE100%10000m1004hPa80%
23-Apr-2024 06:00Overcast Clouds6°C4 mph, SE100%10000m1003hPa77%
23-Apr-2024 09:00Light Rain5°C4 mph, SE96%10000m1002hPa85%
23-Apr-2024 12:00Light Rain1°C4 mph, SE96%10000m1004hPa94%
23-Apr-2024 15:00Light Snow0°C7 mph, S83%10000m1004hPa95%
23-Apr-2024 18:00Broken Clouds0°C4 mph, S80%10000m1004hPa92%
23-Apr-2024 21:00Overcast Clouds1°C4 mph, S100%10000m1004hPa86%
24-Apr-2024 00:00Overcast Clouds3°C4 mph, S100%10000m1004hPa78%